sensor_id;sensor_type;location;lat;lon;timestamp;pressure;altitude;pressure_sealevel;temperature;humidity
46534;BME280;32260;52.008;4.752;2022-08-20T00:00:36;101618.78;;;23.08;66.98
46534;BME280;32260;52.008;4.752;2022-08-20T00:03:06;101623.34;;;23.08;67.22
46534;BME280;32260;52.008;4.752;2022-08-20T00:05:37;101616.66;;;23.14;67.19
46534;BME280;32260;52.008;4.752;2022-08-20T00:08:06;101614.59;;;23.19;67.14
46534;BME280;32260;52.008;4.752;2022-08-20T00:10:35;101622.63;;;23.20;67.05
46534;BME280;32260;52.008;4.752;2022-08-20T00:13:01;101618.94;;;23.21;66.79
46534;BME280;32260;52.008;4.752;2022-08-20T00:15:31;101616.16;;;23.23;66.93
46534;BME280;32260;52.008;4.752;2022-08-20T00:17:58;101622.41;;;23.23;66.80
46534;BME280;32260;52.008;4.752;2022-08-20T00:20:27;101620.56;;;23.24;66.92
46534;BME280;32260;52.008;4.752;2022-08-20T00:22:55;101619.72;;;23.23;66.92
46534;BME280;32260;52.008;4.752;2022-08-20T00:25:22;101623.28;;;23.24;66.66
46534;BME280;32260;52.008;4.752;2022-08-20T00:27:49;101629.56;;;23.24;66.88
46534;BME280;32260;52.008;4.752;2022-08-20T00:30:16;101626.78;;;23.26;66.75
46534;BME280;32260;52.008;4.752;2022-08-20T00:32:46;101628.50;;;23.27;66.96
46534;BME280;32260;52.008;4.752;2022-08-20T00:35:15;101627.56;;;23.28;66.89
46534;BME280;32260;52.008;4.752;2022-08-20T00:37:42;101627.44;;;23.30;66.90
46534;BME280;32260;52.008;4.752;2022-08-20T00:40:11;101630.16;;;23.30;66.96
46534;BME280;32260;52.008;4.752;2022-08-20T00:42:49;101624.47;;;23.34;66.74
46534;BME280;32260;52.008;4.752;2022-08-20T00:45:17;101624.75;;;23.30;66.56
46534;BME280;32260;52.008;4.752;2022-08-20T00:47:44;101626.59;;;23.29;66.61
46534;BME280;32260;52.008;4.752;2022-08-20T00:50:15;101622.91;;;23.30;66.42
46534;BME280;32260;52.008;4.752;2022-08-20T00:52:42;101619.63;;;23.25;66.54
46534;BME280;32260;52.008;4.752;2022-08-20T00:55:11;101620.50;;;23.25;66.53
46534;BME280;32260;52.008;4.752;2022-08-20T00:57:41;101619.34;;;23.30;66.32
46534;BME280;32260;52.008;4.752;2022-08-20T01:00:13;101623.38;;;23.22;66.21
46534;BME280;32260;52.008;4.752;2022-08-20T01:02:39;101614.59;;;23.19;66.12
46534;BME280;32260;52.008;4.752;2022-08-20T01:05:08;101614.94;;;23.13;66.14
46534;BME280;32260;52.008;4.752;2022-08-20T01:07:35;101622.06;;;23.14;66.14
46534;BME280;32260;52.008;4.752;2022-08-20T01:12:47;101623.09;;;22.97;65.38
46534;BME280;32260;52.008;4.752;2022-08-20T01:15:16;101626.84;;;22.94;65.01
46534;BME280;32260;52.008;4.752;2022-08-20T01:17:47;101629.91;;;22.88;64.54
46534;BME280;32260;52.008;4.752;2022-08-20T01:20:21;101617.31;;;22.72;62.52
46534;BME280;32260;52.008;4.752;2022-08-20T01:28:40;101634.59;;;22.70;63.30
46534;BME280;32260;52.008;4.752;2022-08-20T01:31:14;101640.94;;;22.69;63.77
46534;BME280;32260;52.008;4.752;2022-08-20T01:33:44;101643.25;;;22.60;63.04
46534;BME280;32260;52.008;4.752;2022-08-20T01:36:14;101641.50;;;22.59;63.25
46534;BME280;32260;52.008;4.752;2022-08-20T01:38:42;101646.09;;;22.57;63.58
46534;BME280;32260;52.008;4.752;2022-08-20T01:44:02;101645.31;;;22.55;63.96
46534;BME280;32260;52.008;4.752;2022-08-20T01:46:34;101650.91;;;22.52;63.56
46534;BME280;32260;52.008;4.752;2022-08-20T01:49:09;101647.84;;;22.58;63.45
46534;BME280;32260;52.008;4.752;2022-08-20T01:51:36;101648.47;;;22.48;63.29
46534;BME280;32260;52.008;4.752;2022-08-20T01:54:02;101655.72;;;22.47;63.03
46534;BME280;32260;52.008;4.752;2022-08-20T01:56:30;101649.78;;;22.40;63.00
46534;BME280;32260;52.008;4.752;2022-08-20T01:58:58;101650.41;;;22.45;63.36
46534;BME280;32260;52.008;4.752;2022-08-20T02:01:37;101650.31;;;22.47;63.10
46534;BME280;32260;52.008;4.752;2022-08-20T02:04:07;101642.72;;;22.38;63.21
46534;BME280;32260;52.008;4.752;2022-08-20T02:06:37;101650.19;;;22.33;63.31
46534;BME280;32260;52.008;4.752;2022-08-20T02:09:06;101651.63;;;22.40;63.27
46534;BME280;32260;52.008;4.752;2022-08-20T02:11:35;101665.44;;;22.34;63.20
46534;BME280;32260;52.008;4.752;2022-08-20T02:14:04;101670.81;;;22.34;63.45
46534;BME280;32260;52.008;4.752;2022-08-20T02:16:35;101661.78;;;22.35;63.31
46534;BME280;32260;52.008;4.752;2022-08-20T02:19:04;101660.88;;;22.34;63.37
46534;BME280;32260;52.008;4.752;2022-08-20T02:21:35;101658.28;;;22.33;63.38
46534;BME280;32260;52.008;4.752;2022-08-20T02:24:03;101660.03;;;22.34;63.37
46534;BME280;32260;52.008;4.752;2022-08-20T02:26:29;101666.28;;;22.34;63.28
46534;BME280;32260;52.008;4.752;2022-08-20T02:28:58;101661.78;;;22.35;63.30
46534;BME280;32260;52.008;4.752;2022-08-20T02:31:25;101657.22;;;22.35;63.20
46534;BME280;32260;52.008;4.752;2022-08-20T02:33:51;101659.16;;;22.33;63.03
46534;BME280;32260;52.008;4.752;2022-08-20T02:36:18;101654.09;;;22.11;63.75
46534;BME280;32260;52.008;4.752;2022-08-20T02:38:45;101661.03;;;21.99;63.89
46534;BME280;32260;52.008;4.752;2022-08-20T02:41:12;101653.22;;;21.94;64.13
46534;BME280;32260;52.008;4.752;2022-08-20T02:43:40;101660.69;;;21.89;64.24
46534;BME280;32260;52.008;4.752;2022-08-20T02:46:06;101660.34;;;21.79;63.95
46534;BME280;32260;52.008;4.752;2022-08-20T02:48:33;101661.34;;;21.77;63.94
46534;BME280;32260;52.008;4.752;2022-08-20T02:51:02;101670.56;;;21.73;63.56
46534;BME280;32260;52.008;4.752;2022-08-20T02:53:35;101656.47;;;21.68;63.06
46534;BME280;32260;52.008;4.752;2022-08-20T02:56:03;101655.84;;;21.62;63.03
46534;BME280;32260;52.008;4.752;2022-08-20T02:58:29;101653.28;;;21.59;63.57
46534;BME280;32260;52.008;4.752;2022-08-20T03:00:55;101649.94;;;21.54;63.36
46534;BME280;32260;52.008;4.752;2022-08-20T03:03:22;101653.78;;;21.50;63.75
46534;BME280;32260;52.008;4.752;2022-08-20T03:05:51;101656.59;;;21.47;63.79
46534;BME280;32260;52.008;4.752;2022-08-20T03:08:18;101660.53;;;21.41;63.50
46534;BME280;32260;52.008;4.752;2022-08-20T03:10:46;101655.38;;;21.37;63.67
46534;BME280;32260;52.008;4.752;2022-08-20T03:13:14;101661.06;;;21.30;63.62
46534;BME280;32260;52.008;4.752;2022-08-20T03:15:43;101657.75;;;21.25;63.88
46534;BME280;32260;52.008;4.752;2022-08-20T03:18:10;101653.53;;;21.20;64.20
46534;BME280;32260;52.008;4.752;2022-08-20T03:20:37;101664.50;;;21.16;64.15
46534;BME280;32260;52.008;4.752;2022-08-20T03:23:04;101662.97;;;21.11;64.19
46534;BME280;32260;52.008;4.752;2022-08-20T03:25:31;101664.19;;;21.05;64.48
46534;BME280;32260;52.008;4.752;2022-08-20T03:27:58;101665.22;;;21.03;64.48
46534;BME280;32260;52.008;4.752;2022-08-20T03:30:26;101678.81;;;20.99;64.69
46534;BME280;32260;52.008;4.752;2022-08-20T03:32:53;101675.19;;;21.00;64.63
46534;BME280;32260;52.008;4.752;2022-08-20T03:35:21;101670.00;;;20.96;64.79
46534;BME280;32260;52.008;4.752;2022-08-20T03:37:48;101670.19;;;20.93;64.81
46534;BME280;32260;52.008;4.752;2022-08-20T03:40:19;101669.47;;;20.89;64.94
46534;BME280;32260;52.008;4.752;2022-08-20T03:42:45;101671.53;;;20.84;65.00
46534;BME280;32260;52.008;4.752;2022-08-20T03:45:12;101672.69;;;20.78;65.02
46534;BME280;32260;52.008;4.752;2022-08-20T03:47:39;101672.94;;;20.74;64.93
46534;BME280;32260;52.008;4.752;2022-08-20T03:50:08;101683.53;;;20.77;64.91
46534;BME280;32260;52.008;4.752;2022-08-20T03:52:35;101677.53;;;20.72;65.15
46534;BME280;32260;52.008;4.752;2022-08-20T03:55:02;101678.81;;;20.63;65.15
46534;BME280;32260;52.008;4.752;2022-08-20T03:57:29;101677.28;;;20.57;65.10
46534;BME280;32260;52.008;4.752;2022-08-20T03:59:55;101673.00;;;20.53;65.41
46534;BME280;32260;52.008;4.752;2022-08-20T04:02:21;101678.56;;;20.50;65.25
46534;BME280;32260;52.008;4.752;2022-08-20T04:04:47;101668.72;;;20.49;65.46
46534;BME280;32260;52.008;4.752;2022-08-20T04:07:17;101681.16;;;20.51;65.63
46534;BME280;32260;52.008;4.752;2022-08-20T04:09:50;101677.56;;;20.51;65.71
46534;BME280;32260;52.008;4.752;2022-08-20T04:12:17;101677.56;;;20.51;65.80
46534;BME280;32260;52.008;4.752;2022-08-20T04:14:43;101677.66;;;20.49;65.72
46534;BME280;32260;52.008;4.752;2022-08-20T04:17:11;101692.16;;;20.47;65.88
46534;BME280;32260;52.008;4.752;2022-08-20T04:19:39;101692.06;;;20.48;65.52
46534;BME280;32260;52.008;4.752;2022-08-20T04:22:06;101696.88;;;20.42;65.35
46534;BME280;32260;52.008;4.752;2022-08-20T04:24:33;101695.00;;;20.44;65.58
46534;BME280;32260;52.008;4.752;2022-08-20T04:27:02;101696.22;;;20.36;66.02
46534;BME280;32260;52.008;4.752;2022-08-20T04:29:30;101700.81;;;20.34;66.05
46534;BME280;32260;52.008;4.752;2022-08-20T04:31:56;101700.72;;;20.36;65.73
46534;BME280;32260;52.008;4.752;2022-08-20T04:34:22;101698.94;;;20.36;66.05
46534;BME280;32260;52.008;4.752;2022-08-20T04:36:49;101699.06;;;20.33;65.78
46534;BME280;32260;52.008;4.752;2022-08-20T04:39:15;101692.09;;;20.29;65.79
46534;BME280;32260;52.008;4.752;2022-08-20T04:41:41;101698.03;;;20.17;66.09
46534;BME280;32260;52.008;4.752;2022-08-20T04:44:09;101701.84;;;20.13;65.96
46534;BME280;32260;52.008;4.752;2022-08-20T04:46:37;101695.78;;;20.08;66.30
46534;BME280;32260;52.008;4.752;2022-08-20T04:49:04;101704.88;;;20.05;66.44
46534;BME280;32260;52.008;4.752;2022-08-20T04:51:31;101713.06;;;20.02;66.39
46534;BME280;32260;52.008;4.752;2022-08-20T04:54:01;101720.41;;;19.98;66.29
46534;BME280;32260;52.008;4.752;2022-08-20T04:56:31;101719.56;;;19.98;66.40
46534;BME280;32260;52.008;4.752;2022-08-20T04:59:00;101715.19;;;19.95;66.34
46534;BME280;32260;52.008;4.752;2022-08-20T05:01:30;101716.19;;;19.93;66.49
46534;BME280;32260;52.008;4.752;2022-08-20T05:03:57;101715.31;;;19.92;66.79
46534;BME280;32260;52.008;4.752;2022-08-20T05:06:28;101718.94;;;19.91;66.70
46534;BME280;32260;52.008;4.752;2022-08-20T05:08:56;101719.94;;;19.88;66.73
46534;BME280;32260;52.008;4.752;2022-08-20T05:11:24;101722.72;;;19.87;66.57
46534;BME280;32260;52.008;4.752;2022-08-20T05:13:50;101731.66;;;19.87;66.72
46534;BME280;32260;52.008;4.752;2022-08-20T05:16:18;101738.03;;;19.85;66.83
46534;BME280;32260;52.008;4.752;2022-08-20T05:18:44;101736.31;;;19.84;66.64
46534;BME280;32260;52.008;4.752;2022-08-20T05:21:11;101736.25;;;19.85;66.91
46534;BME280;32260;52.008;4.752;2022-08-20T05:23:38;101729.03;;;19.86;67.04
46534;BME280;32260;52.008;4.752;2022-08-20T05:26:09;101736.09;;;19.88;66.73
46534;BME280;32260;52.008;4.752;2022-08-20T05:28:37;101736.97;;;19.89;66.90
46534;BME280;32260;52.008;4.752;2022-08-20T05:31:04;101745.72;;;19.94;66.77
46534;BME280;32260;52.008;4.752;2022-08-20T05:33:34;101747.47;;;19.95;66.98
46534;BME280;32260;52.008;4.752;2022-08-20T05:36:01;101744.78;;;19.95;67.08
46534;BME280;32260;52.008;4.752;2022-08-20T05:38:28;101735.78;;;19.96;67.36
46534;BME280;32260;52.008;4.752;2022-08-20T05:40:54;101749.06;;;19.99;67.40
46534;BME280;32260;52.008;4.752;2022-08-20T05:43:20;101747.91;;;20.05;67.01
46534;BME280;32260;52.008;4.752;2022-08-20T05:45:47;101756.00;;;20.05;67.10
46534;BME280;32260;52.008;4.752;2022-08-20T05:48:20;101763.06;;;20.08;67.30
46534;BME280;32260;52.008;4.752;2022-08-20T05:50:48;101756.66;;;20.10;67.08
46534;BME280;32260;52.008;4.752;2022-08-20T05:53:16;101764.56;;;20.13;67.10
46534;BME280;32260;52.008;4.752;2022-08-20T05:55:42;101763.56;;;20.16;66.71
46534;BME280;32260;52.008;4.752;2022-08-20T05:58:20;101760.91;;;20.35;66.33
46534;BME280;32260;52.008;4.752;2022-08-20T06:00:47;101760.81;;;20.36;66.26
46534;BME280;32260;52.008;4.752;2022-08-20T06:03:14;101770.41;;;20.42;66.05
46534;BME280;32260;52.008;4.752;2022-08-20T06:06:00;101771.97;;;20.48;66.07
46534;BME280;32260;52.008;4.752;2022-08-20T06:08:26;101773.72;;;20.49;66.04
46534;BME280;32260;52.008;4.752;2022-08-20T06:10:54;101768.03;;;20.55;65.99
46534;BME280;32260;52.008;4.752;2022-08-20T06:13:21;101766.13;;;20.57;65.55
46534;BME280;32260;52.008;4.752;2022-08-20T06:15:47;101777.50;;;20.64;65.32
46534;BME280;32260;52.008;4.752;2022-08-20T06:18:14;101761.06;;;20.70;65.15
46534;BME280;32260;52.008;4.752;2022-08-20T06:20:41;101763.41;;;20.78;65.01
46534;BME280;32260;52.008;4.752;2022-08-20T06:23:07;101766.81;;;20.81;64.72
46534;BME280;32260;52.008;4.752;2022-08-20T06:25:34;101764.69;;;20.88;64.35
46534;BME280;32260;52.008;4.752;2022-08-20T06:28:02;101757.41;;;20.90;64.29
46534;BME280;32260;52.008;4.752;2022-08-20T06:30:29;101758.22;;;20.92;63.74
46534;BME280;32260;52.008;4.752;2022-08-20T06:32:55;101756.22;;;20.96;62.76
46534;BME280;32260;52.008;4.752;2022-08-20T06:35:21;101747.91;;;21.00;62.40
46534;BME280;32260;52.008;4.752;2022-08-20T06:37:47;101762.03;;;21.06;62.08
46534;BME280;32260;52.008;4.752;2022-08-20T06:40:19;101769.81;;;21.12;61.21
46534;BME280;32260;52.008;4.752;2022-08-20T06:42:47;101769.66;;;21.15;61.90
46534;BME280;32260;52.008;4.752;2022-08-20T06:45:17;101763.16;;;21.19;61.80
46534;BME280;32260;52.008;4.752;2022-08-20T06:47:45;101772.91;;;21.22;60.28
46534;BME280;32260;52.008;4.752;2022-08-20T06:50:16;101768.13;;;21.28;60.96
46534;BME280;32260;52.008;4.752;2022-08-20T06:52:44;101773.50;;;21.28;60.92
46534;BME280;32260;52.008;4.752;2022-08-20T06:55:13;101778.72;;;21.31;60.44
46534;BME280;32260;52.008;4.752;2022-08-20T06:57:40;101776.97;;;21.30;59.63
46534;BME280;32260;52.008;4.752;2022-08-20T07:00:13;101771.28;;;21.37;58.24
46534;BME280;32260;52.008;4.752;2022-08-20T07:02:41;101778.25;;;21.41;58.62
46534;BME280;32260;52.008;4.752;2022-08-20T07:05:07;101778.91;;;21.46;58.27
46534;BME280;32260;52.008;4.752;2022-08-20T07:07:34;101778.97;;;21.44;56.83
46534;BME280;32260;52.008;4.752;2022-08-20T07:10:06;101786.81;;;21.49;56.04
46534;BME280;32260;52.008;4.752;2022-08-20T07:12:33;101787.63;;;21.51;55.69
46534;BME280;32260;52.008;4.752;2022-08-20T07:15:03;101784.66;;;21.57;56.43
46534;BME280;32260;52.008;4.752;2022-08-20T07:17:33;101796.78;;;21.66;56.65
46534;BME280;32260;52.008;4.752;2022-08-20T07:20:04;101790.31;;;21.51;55.48
46534;BME280;32260;52.008;4.752;2022-08-20T07:22:31;101796.22;;;21.59;56.67
46534;BME280;32260;52.008;4.752;2022-08-20T07:25:00;101791.53;;;21.63;56.28
46534;BME280;32260;52.008;4.752;2022-08-20T07:27:27;101802.22;;;21.64;55.18
46534;BME280;32260;52.008;4.752;2022-08-20T07:29:53;101806.38;;;21.72;56.15
46534;BME280;32260;52.008;4.752;2022-08-20T07:32:40;101793.47;;;21.78;55.12
46534;BME280;32260;52.008;4.752;2022-08-20T07:35:09;101801.28;;;21.83;55.01
46534;BME280;32260;52.008;4.752;2022-08-20T07:37:38;101795.88;;;21.83;50.66
46534;BME280;32260;52.008;4.752;2022-08-20T07:40:07;101800.63;;;21.95;52.63
46534;BME280;32260;52.008;4.752;2022-08-20T07:42:34;101799.28;;;22.04;54.43
46534;BME280;32260;52.008;4.752;2022-08-20T07:45:02;101800.69;;;22.11;52.35
46534;BME280;32260;52.008;4.752;2022-08-20T07:47:28;101810.13;;;22.20;54.95
46534;BME280;32260;52.008;4.752;2022-08-20T07:49:54;101803.69;;;22.23;52.94
46534;BME280;32260;52.008;4.752;2022-08-20T07:52:21;101802.75;;;22.24;51.45
46534;BME280;32260;52.008;4.752;2022-08-20T07:54:47;101805.97;;;22.30;50.84
46534;BME280;32260;52.008;4.752;2022-08-20T07:57:13;101808.03;;;22.43;50.24
46534;BME280;32260;52.008;4.752;2022-08-20T07:59:39;101799.78;;;22.46;49.19
46534;BME280;32260;52.008;4.752;2022-08-20T08:02:05;101808.41;;;22.53;51.21
46534;BME280;32260;52.008;4.752;2022-08-20T08:04:32;101809.91;;;22.58;50.12
46534;BME280;32260;52.008;4.752;2022-08-20T08:06:59;101815.72;;;22.67;52.21
46534;BME280;32260;52.008;4.752;2022-08-20T08:09:26;101816.72;;;22.66;48.37
46534;BME280;32260;52.008;4.752;2022-08-20T08:11:53;101814.53;;;22.72;47.20
46534;BME280;32260;52.008;4.752;2022-08-20T08:14:24;101820.44;;;22.79;44.25
46534;BME280;32260;52.008;4.752;2022-08-20T08:16:57;101816.28;;;22.89;45.97
46534;BME280;32260;52.008;4.752;2022-08-20T08:19:25;101813.84;;;23.01;47.88
46534;BME280;32260;52.008;4.752;2022-08-20T08:21:54;101815.50;;;23.03;44.82
46534;BME280;32260;52.008;4.752;2022-08-20T08:24:20;101812.59;;;23.06;43.51
46534;BME280;32260;52.008;4.752;2022-08-20T08:26:46;101813.78;;;23.18;47.16
46534;BME280;32260;52.008;4.752;2022-08-20T08:29:14;101817.06;;;23.23;43.77
46534;BME280;32260;52.008;4.752;2022-08-20T08:31:41;101817.50;;;23.32;43.84
46534;BME280;32260;52.008;4.752;2022-08-20T08:34:08;101814.25;;;23.41;46.06
46534;BME280;32260;52.008;4.752;2022-08-20T08:36:34;101815.81;;;23.45;44.62
46534;BME280;32260;52.008;4.752;2022-08-20T08:39:03;101817.38;;;23.49;44.80
46534;BME280;32260;52.008;4.752;2022-08-20T08:44:17;101818.47;;;23.61;44.19
46534;BME280;32260;52.008;4.752;2022-08-20T08:46:51;101823.97;;;23.59;40.95
46534;BME280;32260;52.008;4.752;2022-08-20T08:49:22;101825.94;;;23.72;42.72
46534;BME280;32260;52.008;4.752;2022-08-20T08:51:56;101826.75;;;23.74;42.80
46534;BME280;32260;52.008;4.752;2022-08-20T08:54:27;101827.88;;;23.70;40.60
46534;BME280;32260;52.008;4.752;2022-08-20T08:56:54;101823.28;;;23.86;40.42
46534;BME280;32260;52.008;4.752;2022-08-20T08:59:22;101830.97;;;23.94;42.86
46534;BME280;32260;52.008;4.752;2022-08-20T09:01:52;101829.63;;;24.01;40.52
46534;BME280;32260;52.008;4.752;2022-08-20T09:04:19;101826.41;;;23.95;39.17
46534;BME280;32260;52.008;4.752;2022-08-20T09:06:48;101823.25;;;24.17;40.46
46534;BME280;32260;52.008;4.752;2022-08-20T09:09:24;101828.97;;;24.27;40.54
46534;BME280;32260;52.008;4.752;2022-08-20T09:11:54;101831.97;;;24.22;40.19
46534;BME280;32260;52.008;4.752;2022-08-20T09:14:22;101824.94;;;24.34;40.35
46534;BME280;32260;52.008;4.752;2022-08-20T09:16:50;101827.44;;;24.51;40.01
46534;BME280;32260;52.008;4.752;2022-08-20T09:19:16;101825.09;;;24.60;40.82
46534;BME280;32260;52.008;4.752;2022-08-20T09:21:43;101823.25;;;24.75;40.65
46534;BME280;32260;52.008;4.752;2022-08-20T09:24:09;101826.25;;;24.84;41.25
46534;BME280;32260;52.008;4.752;2022-08-20T09:26:36;101824.09;;;24.90;37.77
46534;BME280;32260;52.008;4.752;2022-08-20T09:29:02;101826.69;;;25.06;38.38
46534;BME280;32260;52.008;4.752;2022-08-20T09:31:28;101824.66;;;25.09;39.03
46534;BME280;32260;52.008;4.752;2022-08-20T09:33:54;101817.22;;;25.26;39.30
46534;BME280;32260;52.008;4.752;2022-08-20T09:36:20;101820.13;;;25.37;40.39
46534;BME280;32260;52.008;4.752;2022-08-20T09:38:46;101821.25;;;25.47;39.37
46534;BME280;32260;52.008;4.752;2022-08-20T09:41:13;101815.00;;;25.60;39.85
46534;BME280;32260;52.008;4.752;2022-08-20T09:43:39;101815.66;;;25.76;40.08
46534;BME280;32260;52.008;4.752;2022-08-20T09:46:05;101814.59;;;25.79;38.84
46534;BME280;32260;52.008;4.752;2022-08-20T09:48:32;101814.16;;;25.85;39.34
46534;BME280;32260;52.008;4.752;2022-08-20T09:50:58;101810.47;;;25.86;38.66
46534;BME280;32260;52.008;4.752;2022-08-20T09:53:25;101816.13;;;25.96;38.74
46534;BME280;32260;52.008;4.752;2022-08-20T09:55:53;101807.88;;;26.10;37.84
46534;BME280;32260;52.008;4.752;2022-08-20T09:58:33;101799.16;;;26.05;35.76
46534;BME280;32260;52.008;4.752;2022-08-20T10:01:08;101801.38;;;26.13;36.56
46534;BME280;32260;52.008;4.752;2022-08-20T10:03:35;101806.56;;;25.90;35.57
46534;BME280;32260;52.008;4.752;2022-08-20T10:06:02;101809.38;;;25.89;35.59
46534;BME280;32260;52.008;4.752;2022-08-20T10:08:28;101806.25;;;25.95;36.34
46534;BME280;32260;52.008;4.752;2022-08-20T10:10:54;101808.06;;;25.81;36.62
46534;BME280;32260;52.008;4.752;2022-08-20T10:13:20;101799.50;;;25.88;36.72
46534;BME280;32260;52.008;4.752;2022-08-20T10:15:46;101801.50;;;26.11;36.80
46534;BME280;32260;52.008;4.752;2022-08-20T10:18:12;101803.78;;;26.18;36.63
46534;BME280;32260;52.008;4.752;2022-08-20T10:20:39;101795.59;;;26.30;36.68
46534;BME280;32260;52.008;4.752;2022-08-20T10:23:06;101795.81;;;26.40;37.72
46534;BME280;32260;52.008;4.752;2022-08-20T10:25:32;101801.28;;;26.14;36.31
46534;BME280;32260;52.008;4.752;2022-08-20T10:27:58;101795.28;;;26.09;35.69
46534;BME280;32260;52.008;4.752;2022-08-20T10:32:53;101799.66;;;26.25;35.49
46534;BME280;32260;52.008;4.752;2022-08-20T10:35:19;101796.78;;;26.52;37.84
46534;BME280;32260;52.008;4.752;2022-08-20T10:37:45;101794.53;;;26.70;37.78
46534;BME280;32260;52.008;4.752;2022-08-20T10:40:12;101798.25;;;26.69;38.45
46534;BME280;32260;52.008;4.752;2022-08-20T10:42:41;101796.97;;;26.62;37.66
46534;BME280;32260;52.008;4.752;2022-08-20T10:45:09;101790.25;;;26.55;39.17
46534;BME280;32260;52.008;4.752;2022-08-20T10:47:36;101806.22;;;26.46;37.19
46534;BME280;32260;52.008;4.752;2022-08-20T10:50:05;101802.00;;;26.42;38.54
46534;BME280;32260;52.008;4.752;2022-08-20T10:52:32;101798.88;;;26.23;36.94
46534;BME280;32260;52.008;4.752;2022-08-20T10:54:58;101796.38;;;26.20;37.23
46534;BME280;32260;52.008;4.752;2022-08-20T10:57:27;101801.25;;;26.40;38.71
46534;BME280;32260;52.008;4.752;2022-08-20T10:59:55;101795.66;;;26.68;38.54
46534;BME280;32260;52.008;4.752;2022-08-20T11:02:22;101789.97;;;26.84;38.14
46534;BME280;32260;52.008;4.752;2022-08-20T11:04:50;101799.78;;;27.10;38.22
46534;BME280;32260;52.008;4.752;2022-08-20T11:09:59;101794.03;;;27.51;35.50
46534;BME280;32260;52.008;4.752;2022-08-20T11:12:35;101800.66;;;27.71;35.63
46534;BME280;32260;52.008;4.752;2022-08-20T11:15:13;101794.72;;;27.66;35.61
46534;BME280;32260;52.008;4.752;2022-08-20T11:21:05;101803.81;;;27.53;36.84
46534;BME280;32260;52.008;4.752;2022-08-20T11:23:31;101801.69;;;27.46;35.74
46534;BME280;32260;52.008;4.752;2022-08-20T11:25:58;101814.81;;;27.27;35.04
46534;BME280;32260;52.008;4.752;2022-08-20T11:28:24;101798.91;;;27.10;34.66
46534;BME280;32260;52.008;4.752;2022-08-20T11:30:58;101810.13;;;27.05;34.53
46534;BME280;32260;52.008;4.752;2022-08-20T11:33:25;101801.44;;;27.00;34.93
46534;BME280;32260;52.008;4.752;2022-08-20T11:35:51;101806.81;;;26.89;35.11
46534;BME280;32260;52.008;4.752;2022-08-20T11:38:18;101806.22;;;26.96;36.87
46534;BME280;32260;52.008;4.752;2022-08-20T11:40:47;101795.41;;;26.84;36.07
46534;BME280;32260;52.008;4.752;2022-08-20T11:43:26;101796.91;;;26.88;35.39
46534;BME280;32260;52.008;4.752;2022-08-20T11:46:03;101801.88;;;27.07;36.48
46534;BME280;32260;52.008;4.752;2022-08-20T11:48:30;101807.19;;;27.08;35.65
46534;BME280;32260;52.008;4.752;2022-08-20T11:50:58;101798.25;;;27.06;36.07
46534;BME280;32260;52.008;4.752;2022-08-20T11:53:28;101802.97;;;27.04;34.99
46534;BME280;32260;52.008;4.752;2022-08-20T11:55:54;101803.66;;;27.19;36.10
46534;BME280;32260;52.008;4.752;2022-08-20T11:58:20;101798.88;;;27.23;36.10
46534;BME280;32260;52.008;4.752;2022-08-20T12:00:46;101796.81;;;27.13;35.51
46534;BME280;32260;52.008;4.752;2022-08-20T12:03:12;101805.13;;;26.99;35.35
46534;BME280;32260;52.008;4.752;2022-08-20T12:05:41;101797.38;;;26.82;34.93
46534;BME280;32260;52.008;4.752;2022-08-20T12:08:08;101798.25;;;26.82;34.98
46534;BME280;32260;52.008;4.752;2022-08-20T12:10:35;101806.19;;;26.72;35.56
46534;BME280;32260;52.008;4.752;2022-08-20T12:13:02;101798.69;;;26.63;36.31
46534;BME280;32260;52.008;4.752;2022-08-20T12:15:29;101808.75;;;26.50;36.31
46534;BME280;32260;52.008;4.752;2022-08-20T12:17:58;101793.84;;;26.42;36.52
46534;BME280;32260;52.008;4.752;2022-08-20T12:20:24;101799.63;;;26.51;36.85
46534;BME280;32260;52.008;4.752;2022-08-20T12:22:51;101796.22;;;26.60;37.10
46534;BME280;32260;52.008;4.752;2022-08-20T12:25:19;101795.75;;;26.66;36.93
46534;BME280;32260;52.008;4.752;2022-08-20T12:27:46;101796.84;;;26.76;36.63
46534;BME280;32260;52.008;4.752;2022-08-20T12:30:19;101799.63;;;26.88;37.03
46534;BME280;32260;52.008;4.752;2022-08-20T12:32:46;101808.09;;;26.96;36.89
46534;BME280;32260;52.008;4.752;2022-08-20T12:35:14;101805.41;;;26.70;37.66
46534;BME280;32260;52.008;4.752;2022-08-20T12:37:41;101799.16;;;26.57;37.42
46534;BME280;32260;52.008;4.752;2022-08-20T12:40:12;101802.28;;;26.63;38.45
46534;BME280;32260;52.008;4.752;2022-08-20T12:42:39;101807.00;;;26.74;39.36
46534;BME280;32260;52.008;4.752;2022-08-20T12:45:06;101802.94;;;26.80;39.55
46534;BME280;32260;52.008;4.752;2022-08-20T12:47:35;101805.78;;;26.78;40.19
46534;BME280;32260;52.008;4.752;2022-08-20T12:50:06;101813.69;;;26.82;39.82
46534;BME280;32260;52.008;4.752;2022-08-20T12:52:33;101810.22;;;26.79;39.94
46534;BME280;32260;52.008;4.752;2022-08-20T12:55:00;101808.81;;;26.61;40.10
46534;BME280;32260;52.008;4.752;2022-08-20T12:57:30;101813.28;;;26.49;39.75
46534;BME280;32260;52.008;4.752;2022-08-20T13:00:00;101809.31;;;26.29;39.79
46534;BME280;32260;52.008;4.752;2022-08-20T13:02:27;101814.44;;;26.21;39.92
46534;BME280;32260;52.008;4.752;2022-08-20T13:04:53;101818.75;;;26.10;39.80
46534;BME280;32260;52.008;4.752;2022-08-20T13:07:21;101811.16;;;26.15;40.22
46534;BME280;32260;52.008;4.752;2022-08-20T13:09:48;101816.44;;;26.04;39.72
46534;BME280;32260;52.008;4.752;2022-08-20T13:12:14;101817.91;;;26.10;40.33
46534;BME280;32260;52.008;4.752;2022-08-20T13:14:41;101817.00;;;26.09;39.56
46534;BME280;32260;52.008;4.752;2022-08-20T13:17:08;101810.50;;;26.25;39.41